Clayton-le-Woods, United Kingdom
Current Conditions -  °F | °C
As of 6:20 PM on Thursday 29 Jan 2015 (Local Time) from EGNO Reporting Station
Rain Showers Rain Showers  
Wind Chill: 27°   Ceiling: 1300
Heat Index: 37°   Visibility: 6mi
Dew Point: 34°   Wind: 22mph
Humidity: 87%   Direction: 310°NW
Pressure: 28.79"   Gusts: 35mph
Location:  53.7°N, 2.67°W
Report Text: EGNO 291820Z 31019G30KT 9999 VCSH BKN013 03/01 Q0975
Loading
Personal Weather Stations






























Interactive Weather Map New forecast layout! Learn more

10-Day Weather Forecast

Advertisements
Track Severe Weather on mobile